Time;durP1;ratioP1;P1;durP2;ratioP2;P2;SDS_P1;SDS_P2;PMS_P1;PMS_P2;Temp;Humidity;BMP_temperature;BMP_pressure;BME280_temperature;BME280_humidity;BME280_pressure;Samples;Min_cycle;Max_cycle;Signal;HPM_P1;HPM_P2
2021/06/28 00:00:07;;;;;;;2.50;1.60;;;;;;;;;;5014349;28;20211;-75
2021/06/28 00:02:33;;;;;;;2.80;1.60;;;;;;;;;;5016978;28;20184;-75
2021/06/28 00:05:00;;;;;;;2.60;1.80;;;;;;;;;;4995829;28;20179;-75
2021/06/28 00:07:26;;;;;;;1.60;1.50;;;;;;;;;;5015212;28;20916;-74
2021/06/28 00:09:52;;;;;;;2.17;1.83;;;;;;;;;;4999153;28;20191;-74
2021/06/28 00:12:18;;;;;;;4.93;2.07;;;;;;;;;;5001373;28;20279;-74
2021/06/28 00:14:44;;;;;;;2.30;1.53;;;;;;;;;;5005271;28;20442;-74
2021/06/28 00:17:10;;;;;;;3.80;1.90;;;;;;;;;;5002773;28;20397;-75
2021/06/28 00:19:36;;;;;;;3.22;2.03;;;;;;;;;;5003142;28;20180;-75
2021/06/28 00:22:02;;;;;;;3.43;2.10;;;;;;;;;;5003403;28;20214;-75
2021/06/28 00:24:28;;;;;;;2.20;1.70;;;;;;;;;;5003839;28;20434;-74
2021/06/28 00:26:54;;;;;;;2.20;1.33;;;;;;;;;;5018822;28;20248;-75
2021/06/28 00:29:21;;;;;;;1.57;1.47;;;;;;;;;;5005560;28;20981;-75
2021/06/28 00:31:49;;;;;;;2.33;2.13;;;;;;;;;;5003344;28;20422;-74
2021/06/28 00:34:15;;;;;;;2.47;1.77;;;;;;;;;;5003203;28;20193;-74
2021/06/28 00:36:41;;;;;;;2.53;2.00;;;;;;;;;;5003442;28;20617;-74
2021/06/28 00:39:07;;;;;;;2.97;2.05;;;;;;;;;;5016889;28;20466;-74
2021/06/28 00:41:33;;;;;;;1.75;1.60;;;;;;;;;;5018367;28;20297;-74
2021/06/28 00:43:59;;;;;;;3.40;1.80;;;;;;;;;;5003068;28;20696;-74
2021/06/28 00:46:25;;;;;;;2.13;1.93;;;;;;;;;;5003126;28;20505;-74
2021/06/28 00:48:51;;;;;;;3.83;2.07;;;;;;;;;;5001273;28;20439;-74
2021/06/28 00:51:17;;;;;;;5.45;2.13;;;;;;;;;;5017841;28;20521;-75
2021/06/28 00:53:43;;;;;;;2.20;2.00;;;;;;;;;;5003459;28;20230;-75
2021/06/28 00:56:09;;;;;;;2.55;2.08;;;;;;;;;;5004376;28;20179;-74
2021/06/28 00:58:43;;;;;;;2.90;1.70;;;;;;;;;;5002348;28;20187;-75
2021/06/28 01:01:09;;;;;;;4.07;2.00;;;;;;;;;;5002657;28;20206;-75
2021/06/28 01:03:36;;;;;;;3.90;2.03;;;;;;;;;;5016158;28;20182;-74
2021/06/28 01:06:02;;;;;;;5.05;2.00;;;;;;;;;;5015387;28;20199;-74
2021/06/28 01:08:28;;;;;;;6.50;1.60;;;;;;;;;;5004479;28;20175;-75
2021/06/28 01:10:54;;;;;;;2.08;1.80;;;;;;;;;;5002700;28;20182;-75
2021/06/28 01:13:20;;;;;;;2.90;1.40;;;;;;;;;;5002260;28;20179;-74
2021/06/28 01:15:47;;;;;;;1.95;1.60;;;;;;;;;;5002030;28;20230;-74
2021/06/28 01:18:13;;;;;;;4.35;1.60;;;;;;;;;;5002861;28;20202;-74
2021/06/28 01:20:39;;;;;;;2.40;1.63;;;;;;;;;;5018204;28;20234;-75
2021/06/28 01:23:11;;;;;;;3.67;2.00;;;;;;;;;;5000205;28;20176;-74
2021/06/28 01:25:37;;;;;;;2.33;1.95;;;;;;;;;;5014478;28;20453;-74
2021/06/28 01:28:03;;;;;;;3.75;1.85;;;;;;;;;;4997930;28;20182;-75
2021/06/28 01:30:30;;;;;;;2.08;1.52;;;;;;;;;;5000254;28;20195;-75
2021/06/28 01:32:57;;;;;;;3.75;2.03;;;;;;;;;;5002462;28;20194;-75
2021/06/28 01:35:23;;;;;;;1.77;1.58;;;;;;;;;;5019511;28;20191;-74
2021/06/28 01:37:50;;;;;;;1.90;1.60;;;;;;;;;;5002896;28;20704;-74
2021/06/28 01:40:16;;;;;;;8.98;2.63;;;;;;;;;;5011040;28;20246;-75
2021/06/28 01:42:43;;;;;;;1.88;1.55;;;;;;;;;;4996922;28;20195;-75
2021/06/28 01:45:11;;;;;;;2.13;1.30;;;;;;;;;;5016146;28;20203;-75
2021/06/28 01:47:38;;;;;;;1.98;1.80;;;;;;;;;;4998314;28;20238;-74
2021/06/28 01:50:05;;;;;;;2.85;1.38;;;;;;;;;;4996711;28;20184;-75
2021/06/28 01:52:32;;;;;;;4.55;1.50;;;;;;;;;;5015543;28;20210;-75
2021/06/28 01:54:58;;;;;;;5.78;1.85;;;;;;;;;;5016394;28;20190;-75
2021/06/28 01:57:24;;;;;;;1.30;1.10;;;;;;;;;;5000827;28;20194;-74
2021/06/28 01:59:50;;;;;;;3.60;1.50;;;;;;;;;;5002134;28;20188;-75
2021/06/28 02:02:16;;;;;;;3.33;1.20;;;;;;;;;;5017246;28;20250;-75
2021/06/28 02:04:42;;;;;;;3.17;1.67;;;;;;;;;;5002266;28;20178;-74
2021/06/28 02:07:08;;;;;;;2.03;1.38;;;;;;;;;;5000510;28;20436;-74
2021/06/28 02:09:37;;;;;;;3.08;1.35;;;;;;;;;;5000136;28;20211;-75
2021/06/28 02:12:03;;;;;;;6.93;1.30;;;;;;;;;;5001690;28;20199;-75
2021/06/28 02:14:30;;;;;;;1.63;1.30;;;;;;;;;;5018367;28;20183;-75
2021/06/28 02:16:56;;;;;;;1.38;1.20;;;;;;;;;;5002931;28;20719;-75
2021/06/28 02:19:22;;;;;;;3.50;1.15;;;;;;;;;;5001954;28;20213;-75
2021/06/28 02:21:49;;;;;;;3.25;1.98;;;;;;;;;;4999330;28;20241;-76
2021/06/28 02:24:15;;;;;;;2.58;1.42;;;;;;;;;;5000810;28;20183;-75
2021/06/28 02:26:42;;;;;;;3.78;1.65;;;;;;;;;;5017228;28;20193;-75
2021/06/28 02:29:08;;;;;;;6.05;1.45;;;;;;;;;;5004344;28;20255;-75
2021/06/28 02:31:34;;;;;;;2.85;1.40;;;;;;;;;;4998563;28;20671;-75
2021/06/28 02:34:00;;;;;;;1.38;1.27;;;;;;;;;;5015598;28;20217;-75
2021/06/28 02:36:28;;;;;;;2.70;1.40;;;;;;;;;;4999885;28;20191;-75
2021/06/28 02:38:54;;;;;;;3.72;1.83;;;;;;;;;;5016266;28;20215;-75
2021/06/28 02:41:21;;;;;;;4.80;1.40;;;;;;;;;;5003401;28;20204;-75
2021/06/28 02:43:48;;;;;;;5.28;1.35;;;;;;;;;;4996598;28;20178;-75
2021/06/28 02:46:14;;;;;;;5.70;1.60;;;;;;;;;;5001743;28;20630;-75
2021/06/28 02:48:40;;;;;;;1.88;1.50;;;;;;;;;;5001314;28;20258;-75
2021/06/28 02:51:07;;;;;;;2.33;1.17;;;;;;;;;;5016318;28;20445;-75
2021/06/28 02:53:33;;;;;;;2.72;1.80;;;;;;;;;;5001868;28;20217;-75
2021/06/28 02:56:19;;;;;;;2.50;1.60;;;;;;;;;;5001370;28;20183;-75
2021/06/28 02:58:50;;;;;;;2.40;2.20;;;;;;;;;;5000137;28;20179;-75
2021/06/28 03:01:17;;;;;;;2.78;1.50;;;;;;;;;;4999542;28;20226;-75
2021/06/28 03:03:43;;;;;;;2.55;1.80;;;;;;;;;;5016561;28;20216;-75
2021/06/28 03:06:09;;;;;;;5.40;1.60;;;;;;;;;;5015770;28;20175;-75
2021/06/28 03:08:35;;;;;;;11.07;1.98;;;;;;;;;;5016598;28;20211;-75
2021/06/28 03:11:01;;;;;;;7.20;1.88;;;;;;;;;;5018124;28;20298;-75
2021/06/28 03:13:28;;;;;;;4.20;1.73;;;;;;;;;;4998330;28;20548;-75
2021/06/28 03:15:54;;;;;;;3.55;2.15;;;;;;;;;;5000712;28;20226;-75
2021/06/28 03:18:20;;;;;;;2.72;1.55;;;;;;;;;;5015655;28;20194;-75
2021/06/28 03:20:46;;;;;;;4.43;1.47;;;;;;;;;;5009362;28;20235;-75
2021/06/28 03:23:12;;;;;;;2.83;1.60;;;;;;;;;;5018319;28;20437;-75
2021/06/28 03:25:39;;;;;;;3.28;1.70;;;;;;;;;;5015224;28;20461;-75
2021/06/28 03:28:05;;;;;;;6.95;2.00;;;;;;;;;;5000253;28;20183;-75
2021/06/28 03:30:31;;;;;;;5.28;2.45;;;;;;;;;;5000432;28;20271;-75
2021/06/28 03:32:57;;;;;;;2.45;2.10;;;;;;;;;;5000389;28;20187;-75
2021/06/28 03:35:23;;;;;;;4.07;2.17;;;;;;;;;;5018270;28;20189;-74
2021/06/28 03:37:49;;;;;;;2.35;1.50;;;;;;;;;;5000749;28;20207;-75
2021/06/28 03:40:16;;;;;;;3.72;2.05;;;;;;;;;;5000073;28;20203;-75
2021/06/28 03:42:42;;;;;;;2.38;1.70;;;;;;;;;;5015030;28;20187;-75
2021/06/28 03:45:09;;;;;;;4.05;1.70;;;;;;;;;;5005794;28;20179;-75
2021/06/28 03:47:36;;;;;;;5.70;1.77;;;;;;;;;;5021212;28;20225;-75
2021/06/28 03:50:02;;;;;;;4.68;1.80;;;;;;;;;;5006629;28;20625;-75
2021/06/28 03:52:28;;;;;;;2.10;1.90;;;;;;;;;;5002470;28;20171;-75
2021/06/28 03:54:54;;;;;;;2.20;1.97;;;;;;;;;;5019309;28;20286;-75
2021/06/28 03:57:20;;;;;;;2.73;1.70;;;;;;;;;;5004388;28;20973;-75
2021/06/28 03:59:46;;;;;;;3.45;2.17;;;;;;;;;;5019216;28;20444;-75
2021/06/28 04:02:12;;;;;;;3.45;1.40;;;;;;;;;;5019118;28;20202;-75
2021/06/28 04:04:38;;;;;;;2.17;1.97;;;;;;;;;;5002564;28;20175;-75
2021/06/28 04:07:04;;;;;;;8.47;1.53;;;;;;;;;;5002615;28;20449;-75
2021/06/28 04:09:30;;;;;;;1.35;1.25;;;;;;;;;;5003583;28;20522;-74
2021/06/28 04:11:56;;;;;;;3.00;1.52;;;;;;;;;;4998523;28;20192;-75
2021/06/28 04:14:22;;;;;;;1.55;1.40;;;;;;;;;;5006587;28;20206;-75
2021/06/28 04:16:48;;;;;;;2.60;1.53;;;;;;;;;;5003722;28;20656;-75
2021/06/28 04:19:14;;;;;;;3.53;1.55;;;;;;;;;;5003004;28;20446;-75
2021/06/28 04:21:40;;;;;;;3.47;1.60;;;;;;;;;;5002102;28;20218;-75
2021/06/28 04:24:06;;;;;;;2.93;1.73;;;;;;;;;;5018605;28;20442;-75
2021/06/28 04:26:32;;;;;;;5.65;1.50;;;;;;;;;;5005790;28;20384;-75
2021/06/28 04:28:59;;;;;;;2.28;1.70;;;;;;;;;;5002574;28;20175;-75
2021/06/28 04:31:27;;;;;;;3.75;1.50;;;;;;;;;;5018401;28;20195;-75
2021/06/28 04:33:53;;;;;;;9.40;1.85;;;;;;;;;;5002900;28;20183;-75
2021/06/28 04:36:19;;;;;;;2.13;1.73;;;;;;;;;;5003441;28;20187;-75
2021/06/28 04:38:45;;;;;;;2.50;1.80;;;;;;;;;;5004561;28;20509;-75
2021/06/28 04:41:11;;;;;;;2.40;1.45;;;;;;;;;;5002730;28;20500;-75
2021/06/28 04:43:37;;;;;;;3.27;1.47;;;;;;;;;;5002982;28;20203;-75
2021/06/28 04:46:03;;;;;;;3.00;1.60;;;;;;;;;;5003142;28;20534;-75
2021/06/28 04:48:29;;;;;;;5.15;1.50;;;;;;;;;;5017272;28;20434;-75
2021/06/28 04:50:55;;;;;;;4.43;1.63;;;;;;;;;;4999277;28;20194;-74
2021/06/28 04:53:21;;;;;;;1.80;1.67;;;;;;;;;;5004950;28;20198;-75
2021/06/28 04:55:47;;;;;;;2.73;1.70;;;;;;;;;;5002498;28;20465;-74
2021/06/28 04:58:13;;;;;;;4.47;2.10;;;;;;;;;;5002780;28;20477;-74
2021/06/28 05:00:39;;;;;;;3.37;1.90;;;;;;;;;;5018008;28;20443;-75
2021/06/28 05:03:05;;;;;;;1.50;1.40;;;;;;;;;;5019065;28;20506;-74
2021/06/28 05:05:31;;;;;;;5.20;1.60;;;;;;;;;;5020102;28;20410;-75
2021/06/28 05:07:57;;;;;;;2.20;1.60;;;;;;;;;;5004186;28;20175;-75
2021/06/28 05:10:23;;;;;;;2.00;1.73;;;;;;;;;;5004356;28;20191;-74
2021/06/28 05:12:49;;;;;;;2.90;1.50;;;;;;;;;;5017610;28;20202;-75
2021/06/28 05:15:16;;;;;;;5.70;1.90;;;;;;;;;;5003386;28;20574;-75
2021/06/28 05:17:43;;;;;;;2.58;1.63;;;;;;;;;;5003528;28;20579;-74
2021/06/28 05:20:10;;;;;;;2.40;1.60;;;;;;;;;;5005553;28;20182;-74
2021/06/28 05:22:36;;;;;;;3.60;2.30;;;;;;;;;;5002746;28;20183;-74
2021/06/28 05:25:02;;;;;;;3.38;1.85;;;;;;;;;;5017620;28;20187;-74
2021/06/28 05:27:28;;;;;;;3.58;1.80;;;;;;;;;;5002946;28;20337;-74
2021/06/28 05:29:55;;;;;;;6.43;2.20;;;;;;;;;;5017879;28;20649;-74
2021/06/28 05:32:22;;;;;;;3.55;1.80;;;;;;;;;;5020716;28;20420;-74
2021/06/28 05:34:49;;;;;;;3.28;1.67;;;;;;;;;;4998691;28;20179;-74
2021/06/28 05:37:15;;;;;;;5.45;1.70;;;;;;;;;;5012872;28;20269;-74
2021/06/28 05:39:41;;;;;;;2.50;1.77;;;;;;;;;;5001607;28;20194;-74
2021/06/28 05:42:07;;;;;;;2.60;2.10;;;;;;;;;;5001986;28;20474;-74
2021/06/28 05:44:33;;;;;;;3.73;2.03;;;;;;;;;;5018850;28;20441;-74
2021/06/28 05:46:59;;;;;;;3.45;1.92;;;;;;;;;;5003258;28;20410;-74
2021/06/28 05:49:25;;;;;;;9.90;2.25;;;;;;;;;;5001051;28;20190;-74
2021/06/28 05:51:52;;;;;;;4.10;1.73;;;;;;;;;;5001814;28;20191;-74
2021/06/28 05:54:18;;;;;;;6.50;2.08;;;;;;;;;;5018048;28;20237;-74
2021/06/28 05:56:44;;;;;;;2.10;1.73;;;;;;;;;;5017661;28;20222;-74
2021/06/28 05:59:10;;;;;;;6.43;2.10;;;;;;;;;;5005991;28;20470;-74
2021/06/28 06:01:37;;;;;;;2.75;1.23;;;;;;;;;;4999821;28;20476;-74
2021/06/28 06:04:03;;;;;;;2.20;1.67;;;;;;;;;;5000232;28;20254;-74
2021/06/28 06:06:29;;;;;;;4.75;1.83;;;;;;;;;;5000016;28;20219;-74
2021/06/28 06:08:55;;;;;;;2.60;1.70;;;;;;;;;;5002357;28;20183;-74
2021/06/28 06:11:21;;;;;;;3.90;1.87;;;;;;;;;;5011567;28;20433;-74
2021/06/28 06:13:47;;;;;;;3.03;1.45;;;;;;;;;;5002820;28;20422;-74
2021/06/28 06:16:13;;;;;;;3.35;1.80;;;;;;;;;;4999482;28;20265;-74
2021/06/28 06:18:39;;;;;;;2.40;2.20;;;;;;;;;;5001855;28;20201;-74
2021/06/28 06:21:06;;;;;;;2.72;1.70;;;;;;;;;;5015986;28;20203;-74
2021/06/28 06:23:32;;;;;;;2.35;1.70;;;;;;;;;;5017417;28;20181;-74
2021/06/28 06:25:58;;;;;;;1.95;1.55;;;;;;;;;;5002351;28;20175;-74
2021/06/28 06:28:24;;;;;;;2.08;1.35;;;;;;;;;;4998734;28;20179;-74
2021/06/28 06:30:50;;;;;;;2.17;1.90;;;;;;;;;;5002774;28;20194;-74
2021/06/28 06:33:16;;;;;;;1.73;1.63;;;;;;;;;;5017339;28;20435;-73
2021/06/28 06:35:42;;;;;;;3.88;2.22;;;;;;;;;;5002294;28;20241;-73
2021/06/28 06:38:08;;;;;;;2.80;1.57;;;;;;;;;;5003128;28;20183;-73
2021/06/28 06:40:34;;;;;;;5.93;1.42;;;;;;;;;;4999668;28;20458;-74
2021/06/28 06:43:00;;;;;;;3.35;1.75;;;;;;;;;;5002095;28;20246;-73
2021/06/28 06:45:27;;;;;;;5.18;2.05;;;;;;;;;;4999448;28;20222;-73
2021/06/28 06:47:53;;;;;;;2.28;1.80;;;;;;;;;;5017624;28;20189;-73
2021/06/28 06:50:19;;;;;;;2.25;1.42;;;;;;;;;;5018792;28;20190;-73
2021/06/28 06:52:49;;;;;;;3.90;2.08;;;;;;;;;;5000810;28;20211;-73
2021/06/28 06:55:15;;;;;;;3.15;1.70;;;;;;;;;;5000429;28;20255;-74
2021/06/28 06:57:41;;;;;;;4.35;2.78;;;;;;;;;;5002015;28;20193;-74
2021/06/28 07:00:09;;;;;;;3.58;1.88;;;;;;;;;;4998749;28;20235;-74
2021/06/28 07:02:35;;;;;;;4.22;2.33;;;;;;;;;;5001815;28;20179;-74
2021/06/28 07:05:01;;;;;;;4.30;2.30;;;;;;;;;;5003864;28;20231;-74
2021/06/28 07:07:27;;;;;;;4.33;2.60;;;;;;;;;;4999562;28;20546;-74
2021/06/28 07:09:53;;;;;;;3.63;2.00;;;;;;;;;;5000591;28;20821;-74
2021/06/28 07:12:19;;;;;;;5.07;2.05;;;;;;;;;;5015633;28;20661;-74
2021/06/28 07:14:45;;;;;;;4.93;1.90;;;;;;;;;;5009978;28;20294;-74
2021/06/28 07:17:11;;;;;;;4.57;2.10;;;;;;;;;;5003349;28;20427;-74
2021/06/28 07:19:37;;;;;;;1.65;1.55;;;;;;;;;;5000136;28;20404;-73
2021/06/28 07:22:03;;;;;;;6.73;2.00;;;;;;;;;;4999222;28;20215;-74
2021/06/28 07:24:29;;;;;;;4.35;1.95;;;;;;;;;;5000752;28;20462;-74
2021/06/28 07:26:55;;;;;;;2.47;2.23;;;;;;;;;;5013535;28;20186;-74
2021/06/28 07:29:21;;;;;;;2.78;2.30;;;;;;;;;;5003141;28;20419;-74
2021/06/28 07:31:47;;;;;;;4.85;1.90;;;;;;;;;;5000135;28;20184;-74
2021/06/28 07:34:13;;;;;;;7.05;1.90;;;;;;;;;;5000289;28;20254;-74
2021/06/28 07:36:39;;;;;;;4.63;2.17;;;;;;;;;;5000451;28;20191;-73
2021/06/28 07:39:06;;;;;;;3.30;1.60;;;;;;;;;;5000375;28;20196;-74
2021/06/28 07:41:33;;;;;;;6.60;1.95;;;;;;;;;;5015014;28;20478;-73
2021/06/28 07:44:00;;;;;;;4.53;1.85;;;;;;;;;;5001227;28;20203;-74
2021/06/28 07:46:26;;;;;;;3.42;1.63;;;;;;;;;;4999633;28;20186;-74
2021/06/28 07:48:52;;;;;;;2.95;1.67;;;;;;;;;;4999345;28;20556;-74
2021/06/28 07:51:18;;;;;;;5.63;1.70;;;;;;;;;;5014948;28;20254;-74
2021/06/28 07:53:44;;;;;;;5.70;1.90;;;;;;;;;;4995203;28;20216;-74
2021/06/28 07:56:20;;;;;;;6.07;1.88;;;;;;;;;;5002294;28;20412;-74
2021/06/28 07:58:46;;;;;;;2.90;1.40;;;;;;;;;;5002232;28;20239;-74
2021/06/28 08:01:12;;;;;;;3.95;1.50;;;;;;;;;;5000328;28;20229;-74
2021/06/28 08:03:44;;;;;;;7.22;2.13;;;;;;;;;;5000633;28;20187;-74
2021/06/28 08:06:10;;;;;;;4.15;1.60;;;;;;;;;;5015237;28;20344;-74
2021/06/28 08:08:36;;;;;;;5.82;1.80;;;;;;;;;;5002181;28;20197;-74
2021/06/28 08:11:03;;;;;;;8.13;1.97;;;;;;;;;;5001405;28;20253;-75
2021/06/28 08:13:29;;;;;;;3.28;2.13;;;;;;;;;;5014464;28;20415;-74
2021/06/28 08:15:55;;;;;;;4.10;1.55;;;;;;;;;;4998605;28;20240;-74
2021/06/28 08:18:21;;;;;;;2.87;1.67;;;;;;;;;;5002977;28;20186;-75
2021/06/28 08:20:47;;;;;;;3.67;2.00;;;;;;;;;;5014960;28;20475;-74
2021/06/28 08:23:13;;;;;;;3.93;2.20;;;;;;;;;;5001205;28;20433;-74
2021/06/28 08:25:40;;;;;;;4.15;2.10;;;;;;;;;;4999265;28;20407;-75
2021/06/28 08:28:07;;;;;;;2.00;1.80;;;;;;;;;;4997799;28;20193;-75
2021/06/28 08:30:33;;;;;;;3.88;1.83;;;;;;;;;;5001162;28;20245;-74
2021/06/28 08:32:59;;;;;;;4.30;1.90;;;;;;;;;;5019354;28;20190;-74
2021/06/28 08:35:25;;;;;;;2.57;2.10;;;;;;;;;;5018985;28;20220;-76
2021/06/28 08:37:51;;;;;;;3.00;2.60;;;;;;;;;;5005251;28;20392;-74
2021/06/28 08:40:17;;;;;;;5.63;2.70;;;;;;;;;;5003197;28;20425;-75
2021/06/28 08:42:44;;;;;;;2.60;2.40;;;;;;;;;;5019332;28;20557;-74
2021/06/28 08:45:11;;;;;;;4.05;2.42;;;;;;;;;;5003366;28;20192;-74
2021/06/28 08:47:37;;;;;;;3.63;2.00;;;;;;;;;;5018448;28;20253;-74
2021/06/28 08:50:04;;;;;;;5.47;2.22;;;;;;;;;;5005034;28;20183;-75
2021/06/28 08:52:36;;;;;;;3.50;2.00;;;;;;;;;;5001573;28;20182;-75
2021/06/28 08:55:02;;;;;;;1.88;1.77;;;;;;;;;;5010798;28;20190;-75
2021/06/28 08:57:28;;;;;;;2.67;1.85;;;;;;;;;;5002516;28;20639;-75
2021/06/28 08:59:53;;;;;;;2.10;1.43;;;;;;;;;;5002777;28;20194;-75
2021/06/28 09:02:19;;;;;;;2.90;1.70;;;;;;;;;;5020084;28;20441;-75
2021/06/28 09:04:58;;;;;;;8.40;2.20;;;;;;;;;;5002407;28;20397;-74
2021/06/28 09:07:24;;;;;;;2.95;1.65;;;;;;;;;;5017480;28;20422;-75
2021/06/28 09:09:50;;;;;;;2.45;1.85;;;;;;;;;;5003029;28;20194;-74
2021/06/28 09:12:17;;;;;;;2.93;1.57;;;;;;;;;;5003165;28;20559;-75
2021/06/28 09:14:50;;;;;;;2.45;1.70;;;;;;;;;;5015846;28;20425;-75
2021/06/28 09:17:39;;;;;;;3.75;2.00;;;;;;;;;;5003595;28;20209;-75
2021/06/28 09:20:16;;;;;;;3.03;1.70;;;;;;;;;;4999108;28;20207;-75
2021/06/28 09:22:42;;;;;;;2.78;1.63;;;;;;;;;;5019011;28;20182;-75
2021/06/28 09:25:09;;;;;;;2.40;1.70;;;;;;;;;;5017083;28;20194;-75
2021/06/28 09:27:45;;;;;;;4.97;1.63;;;;;;;;;;5002919;28;20417;-75
2021/06/28 09:30:16;;;;;;;2.85;1.60;;;;;;;;;;5002748;28;20185;-74
2021/06/28 09:32:51;;;;;;;2.30;1.50;;;;;;;;;;5001867;28;20187;-74
2021/06/28 09:35:27;;;;;;;3.20;1.70;;;;;;;;;;5018112;28;20266;-75
2021/06/28 09:37:53;;;;;;;2.60;1.70;;;;;;;;;;5001827;28;20915;-74
2021/06/28 09:40:24;;;;;;;1.57;1.47;;;;;;;;;;5016235;28;20484;-74
2021/06/28 09:42:50;;;;;;;2.07;1.60;;;;;;;;;;5016277;28;20691;-74
2021/06/28 09:45:17;;;;;;;2.50;1.47;;;;;;;;;;5017991;28;20739;-74
2021/06/28 09:47:44;;;;;;;2.27;1.60;;;;;;;;;;4996053;28;20553;-75
2021/06/28 09:50:15;;;;;;;4.50;1.80;;;;;;;;;;5003228;28;20496;-74
2021/06/28 09:52:42;;;;;;;2.80;1.80;;;;;;;;;;4998992;28;20763;-75
2021/06/28 09:55:13;;;;;;;1.67;1.57;;;;;;;;;;5000556;28;20409;-74
2021/06/28 09:57:39;;;;;;;2.30;1.90;;;;;;;;;;5000879;28;20474;-75
2021/06/28 10:00:26;;;;;;;1.40;1.20;;;;;;;;;;5016102;28;20184;-75
2021/06/28 10:02:52;;;;;;;1.37;1.27;;;;;;;;;;4997329;28;20418;-74
2021/06/28 10:05:24;;;;;;;2.97;1.60;;;;;;;;;;5019594;28;20393;-74
2021/06/28 10:07:50;;;;;;;4.45;2.95;;;;;;;;;;5001781;28;20850;-74
2021/06/28 10:10:22;;;;;;;5.00;2.07;;;;;;;;;;5002601;28;20217;-75
2021/06/28 10:12:59;;;;;;;2.88;1.40;;;;;;;;;;4994039;28;20436;-76
2021/06/28 10:15:27;;;;;;;2.40;1.40;;;;;;;;;;5001384;28;20242;-76
2021/06/28 10:17:53;;;;;;;1.30;1.20;;;;;;;;;;5000994;28;20183;-76
2021/06/28 10:20:21;;;;;;;4.73;1.60;;;;;;;;;;5003874;28;20195;-76
2021/06/28 10:22:48;;;;;;;2.20;1.80;;;;;;;;;;5000754;28;20430;-76
2021/06/28 10:25:16;;;;;;;2.07;1.57;;;;;;;;;;5016136;28;20788;-76
2021/06/28 10:27:42;;;;;;;1.90;1.20;;;;;;;;;;5000409;28;20412;-75
2021/06/28 10:30:10;;;;;;;4.07;1.20;;;;;;;;;;4999663;28;20483;-76
2021/06/28 10:32:36;;;;;;;2.87;1.40;;;;;;;;;;5001837;28;21013;-76
2021/06/28 10:35:03;;;;;;;3.60;1.30;;;;;;;;;;5002052;28;20421;-77
2021/06/28 10:37:30;;;;;;;3.53;1.70;;;;;;;;;;5000694;28;20913;-76
2021/06/28 10:39:57;;;;;;;3.27;1.90;;;;;;;;;;5014912;28;20417;-76
2021/06/28 10:42:33;;;;;;;1.80;1.30;;;;;;;;;;5002123;28;20440;-76
2021/06/28 10:45:00;;;;;;;2.17;1.60;;;;;;;;;;5016636;28;20834;-76
2021/06/28 10:47:28;;;;;;;1.95;1.50;;;;;;;;;;5002337;28;20439;-76
2021/06/28 10:49:54;;;;;;;2.30;1.48;;;;;;;;;;5001404;28;20210;-76
2021/06/28 10:52:41;;;;;;;4.10;1.63;;;;;;;;;;5000267;28;20206;-76
2021/06/28 10:55:20;;;;;;;2.28;1.60;;;;;;;;;;4998495;28;20446;-76
2021/06/28 10:57:52;;;;;;;2.15;1.40;;;;;;;;;;5015437;28;20213;-77
2021/06/28 11:00:38;;;;;;;1.70;1.60;;;;;;;;;;5016634;28;20179;-77
2021/06/28 11:03:26;;;;;;;2.47;1.60;;;;;;;;;;5011297;28;20409;-76
2021/06/28 11:06:11;;;;;;;1.60;1.50;;;;;;;;;;5011134;28;20923;-76
2021/06/28 11:08:41;;;;;;;3.73;1.73;;;;;;;;;;5016887;28;20446;-76
2021/06/28 11:11:07;;;;;;;1.73;1.63;;;;;;;;;;5018586;28;20433;-76
2021/06/28 11:13:38;;;;;;;2.50;1.23;;;;;;;;;;5000670;28;20426;-77
2021/06/28 11:16:23;;;;;;;2.20;2.00;;;;;;;;;;4998686;28;20999;-76
2021/06/28 11:18:49;;;;;;;1.67;1.40;;;;;;;;;;4999326;28;20449;-76
2021/06/28 11:21:35;;;;;;;3.60;1.20;;;;;;;;;;4999962;28;20464;-76
2021/06/28 11:24:01;;;;;;;2.10;1.67;;;;;;;;;;5012608;28;20461;-76
2021/06/28 11:26:37;;;;;;;3.73;1.40;;;;;;;;;;5017484;28;20889;-77
2021/06/28 11:29:03;;;;;;;3.60;1.60;;;;;;;;;;5000228;28;20441;-76
2021/06/28 11:31:30;;;;;;;3.70;1.50;;;;;;;;;;4999592;28;20459;-76
2021/06/28 11:33:58;;;;;;;2.27;1.60;;;;;;;;;;4997606;28;20548;-77
2021/06/28 11:36:24;;;;;;;2.83;1.50;;;;;;;;;;4998584;28;20465;-77
2021/06/28 11:38:55;;;;;;;1.80;1.40;;;;;;;;;;5013996;28;21009;-77
2021/06/28 11:41:22;;;;;;;1.30;1.20;;;;;;;;;;5016044;28;20549;-76
2021/06/28 11:43:57;;;;;;;2.50;1.67;;;;;;;;;;4999716;28;20488;-76
2021/06/28 11:46:23;;;;;;;2.17;1.97;;;;;;;;;;5001322;28;20430;-77
2021/06/28 11:49:07;;;;;;;3.00;1.77;;;;;;;;;;5001399;28;20444;-76
2021/06/28 11:51:44;;;;;;;3.33;1.40;;;;;;;;;;4995549;28;20445;-77
2021/06/28 11:54:12;;;;;;;2.13;1.70;;;;;;;;;;4998664;28;20972;-76
2021/06/28 11:56:40;;;;;;;2.37;1.60;;;;;;;;;;5016039;28;20504;-77
2021/06/28 11:59:07;;;;;;;3.00;1.40;;;;;;;;;;5002534;28;20447;-76
2021/06/28 12:01:34;;;;;;;2.20;1.53;;;;;;;;;;5001824;28;20538;-76
2021/06/28 12:04:01;;;;;;;1.97;1.30;;;;;;;;;;5015787;28;20451;-76
2021/06/28 12:06:28;;;;;;;3.20;1.57;;;;;;;;;;5000744;28;20891;-76
2021/06/28 12:09:08;;;;;;;2.00;1.67;;;;;;;;;;5005019;28;20484;-77
2021/06/28 12:11:36;;;;;;;1.83;1.73;;;;;;;;;;5003890;28;20439;-77
2021/06/28 12:14:02;;;;;;;1.97;1.30;;;;;;;;;;5006588;28;20447;-77
2021/06/28 12:16:28;;;;;;;2.30;1.50;;;;;;;;;;5003746;28;20477;-76
2021/06/28 12:19:01;;;;;;;3.83;1.30;;;;;;;;;;5003181;28;21114;-75
2021/06/28 12:21:28;;;;;;;1.53;1.43;;;;;;;;;;4991813;28;21003;-77
2021/06/28 12:24:05;;;;;;;5.87;1.67;;;;;;;;;;5003347;28;21090;-77
2021/06/28 12:26:31;;;;;;;4.17;1.37;;;;;;;;;;5019872;28;20434;-77
2021/06/28 12:28:57;;;;;;;2.17;1.20;;;;;;;;;;5004168;28;20505;-77
2021/06/28 12:31:24;;;;;;;2.27;1.60;;;;;;;;;;5000979;28;20453;-77
2021/06/28 12:33:56;;;;;;;1.23;1.10;;;;;;;;;;5002026;28;20538;-77
2021/06/28 12:36:22;;;;;;;5.60;3.50;;;;;;;;;;5017711;28;20434;-77
2021/06/28 12:38:58;;;;;;;3.37;1.33;;;;;;;;;;4998514;28;20523;-77
2021/06/28 12:41:24;;;;;;;1.47;1.30;;;;;;;;;;5005156;28;20464;-77
2021/06/28 12:43:50;;;;;;;3.43;1.87;;;;;;;;;;5003831;28;20470;-77
2021/06/28 12:46:19;;;;;;;1.63;1.23;;;;;;;;;;5017759;28;20512;-78
2021/06/28 12:48:46;;;;;;;1.50;1.40;;;;;;;;;;5003830;28;20533;-77
2021/06/28 12:51:12;;;;;;;1.50;1.40;;;;;;;;;;5015113;28;20443;-77
2021/06/28 12:53:39;;;;;;;1.70;1.60;;;;;;;;;;4998824;28;20449;-77
2021/06/28 12:56:05;;;;;;;2.33;1.50;;;;;;;;;;5004301;28;20441;-76
2021/06/28 12:58:45;;;;;;;1.93;1.80;;;;;;;;;;5003763;28;20429;-77
2021/06/28 13:01:12;;;;;;;1.40;1.30;;;;;;;;;;5003168;28;20473;-78
2021/06/28 13:03:38;;;;;;;1.53;1.30;;;;;;;;;;5014634;28;20441;-77
2021/06/28 13:06:19;;;;;;;1.10;1.00;;;;;;;;;;5015843;28;20439;-77
2021/06/28 13:08:45;;;;;;;2.90;1.37;;;;;;;;;;4998957;28;20447;-77
2021/06/28 13:11:14;;;;;;;2.07;1.00;;;;;;;;;;4997349;28;20429;-78
2021/06/28 13:13:56;;;;;;;2.63;1.33;;;;;;;;;;5002070;28;20451;-78
2021/06/28 13:16:26;;;;;;;1.47;1.03;;;;;;;;;;5003623;28;20556;-78
2021/06/28 13:18:55;;;;;;;3.27;1.10;;;;;;;;;;5016383;28;20473;-77
2021/06/28 13:21:22;;;;;;;1.53;1.20;;;;;;;;;;5017935;28;20462;-76
2021/06/28 13:23:54;;;;;;;1.60;0.83;;;;;;;;;;5017611;28;20529;-78
2021/06/28 13:26:25;;;;;;;2.67;1.23;;;;;;;;;;5000547;28;20894;-80
2021/06/28 13:28:56;;;;;;;1.20;1.07;;;;;;;;;;5003078;28;20478;-78
2021/06/28 13:31:22;;;;;;;3.63;1.10;;;;;;;;;;5000866;28;20456;-80
2021/06/28 13:34:01;;;;;;;3.17;1.30;;;;;;;;;;5001932;28;20469;-79
2021/06/28 13:36:27;;;;;;;2.40;1.30;;;;;;;;;;5004317;28;20449;-80
2021/06/28 13:38:53;;;;;;;1.20;1.10;;;;;;;;;;5017958;28;20444;-80
2021/06/28 13:41:19;;;;;;;2.90;1.10;;;;;;;;;;5018465;28;20466;-80
2021/06/28 13:43:45;;;;;;;1.10;1.00;;;;;;;;;;5000012;28;21033;-79
2021/06/28 13:46:25;;;;;;;2.03;1.20;;;;;;;;;;5015827;28;20480;-78
2021/06/28 13:48:51;;;;;;;1.63;1.10;;;;;;;;;;5002428;28;20510;-77
2021/06/28 13:51:20;;;;;;;2.67;1.27;;;;;;;;;;5003882;28;20443;-77
2021/06/28 13:53:46;;;;;;;2.03;1.27;;;;;;;;;;5011968;28;20468;-79
2021/06/28 13:56:12;;;;;;;1.30;0.90;;;;;;;;;;5004175;28;20441;-79
2021/06/28 13:58:43;;;;;;;1.07;0.97;;;;;;;;;;5000087;28;20529;-78
2021/06/28 14:01:12;;;;;;;1.47;1.20;;;;;;;;;;4994794;28;20576;-78
2021/06/28 14:03:38;;;;;;;1.03;0.97;;;;;;;;;;5007530;28;20443;-77
2021/06/28 14:06:04;;;;;;;1.63;1.13;;;;;;;;;;5017057;28;20437;-78
2021/06/28 14:08:30;;;;;;;2.17;0.90;;;;;;;;;;5018947;28;20413;-77
2021/06/28 14:10:56;;;;;;;1.13;1.03;;;;;;;;;;5018087;28;20445;-77
2021/06/28 14:13:22;;;;;;;1.23;0.90;;;;;;;;;;5002265;28;20442;-78
2021/06/28 14:15:48;;;;;;;1.37;1.13;;;;;;;;;;5015310;28;20478;-79
2021/06/28 14:18:14;;;;;;;2.20;1.10;;;;;;;;;;5016258;28;20508;-81
2021/06/28 14:20:41;;;;;;;4.67;1.30;;;;;;;;;;5017143;28;20596;-78
2021/06/28 14:23:07;;;;;;;1.30;1.20;;;;;;;;;;5019509;28;20446;-78
2021/06/28 14:25:48;;;;;;;1.53;0.93;;;;;;;;;;5010146;28;20627;-78
2021/06/28 14:28:16;;;;;;;1.63;1.17;;;;;;;;;;4996748;28;20465;-78
2021/06/28 14:30:42;;;;;;;2.40;1.10;;;;;;;;;;5016613;28;20445;-80
2021/06/28 14:33:08;;;;;;;1.73;1.30;;;;;;;;;;4999020;28;20473;-79
2021/06/28 14:35:34;;;;;;;2.03;1.20;;;;;;;;;;5015400;28;20437;-78
2021/06/28 14:38:02;;;;;;;1.43;1.20;;;;;;;;;;4999980;28;20433;-80
2021/06/28 14:40:28;;;;;;;1.10;1.00;;;;;;;;;;5001317;28;20954;-77
2021/06/28 14:42:54;;;;;;;1.30;1.20;;;;;;;;;;4994880;28;20977;-80
2021/06/28 14:45:20;;;;;;;3.10;1.40;;;;;;;;;;5015276;28;20479;-79